Impacts TAF Board
For situational awareness. Not to be used for flight planning purposes.
IDs:

KMSY - New Orleans/Armstron, LA, US

Issued at 2159 UTC 22 Sep 2020
Updated at 2218 UTC 22 Sep 2020
Potential Impact None Slight Moderate High
Time<<23/11Z 23/12Z 23/13Z 23/14Z 23/15Z 23/16Z 23/17Z 23/18Z 23/19Z 23/20Z 23/21Z 23/22Z 23/23Z>>
Type PRVL PRVL PRVL PRVL PRVL PRVL PRVL PRVL PRVL PRVL PRVL PRVL PRVL
VIS >6 >6 >6 >6 >6 >6 >6 >6 >6 >6 >6 >6 >6
CIG 30 30 30 15 15 15 15 15 15 15 15 15 15
Cover BKN BKN BKN OVC OVC OVC OVC OVC OVC OVC OVC OVC OVC
FltCat MVFR MVFR MVFR MVFR MVFR MVFR MVFR MVFR MVFR MVFR MVFR MVFR MVFR
WX VCSH VCSH VCSH SHRA SHRA SHRA SHRA SHRA SHRA SHRA SHRA SHRA SHRA
WDir 100 100 100 120 120 120 120 120 120 120 120 120 120
WSpd 8 8 8 10 10 10 10 10 10 10 10 10 10
WGst -- -- -- 24 24 24 24 24 24 24 24 24 24
Raw TAF
KMSY 222159Z 2222/2324 09014KT P6SM VCSH SCT010 BKN030
  FM230600 10008KT P6SM VCSH BKN030
  FM231400 12010G24KT P6SM SHRA OVC015


METAR Board
Radar Display
Forecast Discussion
For situational awareness. Not to be used for flight planning purposes.